sensor_id;sensor_type;location;lat;lon;timestamp;temperature;humidity
9466;DHT22;4771;48.726;9.006;2022-11-14T00:00:05;5.70;99.90
9466;DHT22;4771;48.726;9.006;2022-11-14T00:02:32;5.60;99.90
9466;DHT22;4771;48.726;9.006;2022-11-14T00:04:59;5.70;99.90
9466;DHT22;4771;48.726;9.006;2022-11-14T00:07:29;5.50;99.90
9466;DHT22;4771;48.726;9.006;2022-11-14T00:09:57;5.50;99.90
9466;DHT22;4771;48.726;9.006;2022-11-14T00:12:24;5.40;99.90
9466;DHT22;4771;48.726;9.006;2022-11-14T00:14:51;5.50;99.90
9466;DHT22;4771;48.726;9.006;2022-11-14T00:17:20;5.60;99.90
9466;DHT22;4771;48.726;9.006;2022-11-14T00:19:47;5.50;99.90
9466;DHT22;4771;48.726;9.006;2022-11-14T00:22:14;5.40;99.90
9466;DHT22;4771;48.726;9.006;2022-11-14T00:24:41;5.50;99.90
9466;DHT22;4771;48.726;9.006;2022-11-14T00:27:10;5.50;99.90
9466;DHT22;4771;48.726;9.006;2022-11-14T00:29:37;5.60;99.90
9466;DHT22;4771;48.726;9.006;2022-11-14T00:32:05;5.60;99.90
9466;DHT22;4771;48.726;9.006;2022-11-14T00:34:32;5.60;99.90
9466;DHT22;4771;48.726;9.006;2022-11-14T00:36:59;5.70;99.90
9466;DHT22;4771;48.726;9.006;2022-11-14T00:39:26;5.80;99.90
9466;DHT22;4771;48.726;9.006;2022-11-14T00:41:53;5.80;99.90
9466;DHT22;4771;48.726;9.006;2022-11-14T00:44:21;5.80;99.90
9466;DHT22;4771;48.726;9.006;2022-11-14T00:46:48;5.80;99.90
9466;DHT22;4771;48.726;9.006;2022-11-14T00:49:15;5.80;99.90
9466;DHT22;4771;48.726;9.006;2022-11-14T00:51:42;5.90;99.90
9466;DHT22;4771;48.726;9.006;2022-11-14T00:54:09;6.00;99.90
9466;DHT22;4771;48.726;9.006;2022-11-14T00:56:36;6.10;99.90
9466;DHT22;4771;48.726;9.006;2022-11-14T00:59:03;5.90;99.90
9466;DHT22;4771;48.726;9.006;2022-11-14T01:01:31;5.90;99.90
9466;DHT22;4771;48.726;9.006;2022-11-14T01:03:58;5.90;99.90
9466;DHT22;4771;48.726;9.006;2022-11-14T01:06:25;6.00;99.90
9466;DHT22;4771;48.726;9.006;2022-11-14T01:08:52;6.00;99.90
9466;DHT22;4771;48.726;9.006;2022-11-14T01:11:21;6.10;99.90
9466;DHT22;4771;48.726;9.006;2022-11-14T01:13:48;6.10;99.90
9466;DHT22;4771;48.726;9.006;2022-11-14T01:16:15;5.90;99.90
9466;DHT22;4771;48.726;9.006;2022-11-14T01:18:45;5.90;99.90
9466;DHT22;4771;48.726;9.006;2022-11-14T01:21:13;6.00;99.90
9466;DHT22;4771;48.726;9.006;2022-11-14T01:23:40;6.00;99.90
9466;DHT22;4771;48.726;9.006;2022-11-14T01:26:10;6.00;99.90
9466;DHT22;4771;48.726;9.006;2022-11-14T01:28:37;6.00;99.90
9466;DHT22;4771;48.726;9.006;2022-11-14T01:31:09;6.00;99.90
9466;DHT22;4771;48.726;9.006;2022-11-14T01:33:37;6.10;99.90
9466;DHT22;4771;48.726;9.006;2022-11-14T01:36:06;6.10;99.90
9466;DHT22;4771;48.726;9.006;2022-11-14T01:38:33;6.20;99.90
9466;DHT22;4771;48.726;9.006;2022-11-14T01:41:01;6.10;99.90
9466;DHT22;4771;48.726;9.006;2022-11-14T01:43:30;5.90;99.90
9466;DHT22;4771;48.726;9.006;2022-11-14T01:46:01;6.00;99.90
9466;DHT22;4771;48.726;9.006;2022-11-14T01:48:34;6.10;99.90
9466;DHT22;4771;48.726;9.006;2022-11-14T01:51:10;6.10;99.90
9466;DHT22;4771;48.726;9.006;2022-11-14T01:53:38;6.10;99.90
9466;DHT22;4771;48.726;9.006;2022-11-14T01:56:07;6.20;99.90
9466;DHT22;4771;48.726;9.006;2022-11-14T01:58:36;6.10;99.90
9466;DHT22;4771;48.726;9.006;2022-11-14T02:01:04;6.00;99.90
9466;DHT22;4771;48.726;9.006;2022-11-14T02:03:34;6.10;99.90
9466;DHT22;4771;48.726;9.006;2022-11-14T02:06:02;6.10;99.90
9466;DHT22;4771;48.726;9.006;2022-11-14T02:08:32;6.10;99.90
9466;DHT22;4771;48.726;9.006;2022-11-14T02:10:59;6.10;99.90
9466;DHT22;4771;48.726;9.006;2022-11-14T02:13:26;6.10;99.90
9466;DHT22;4771;48.726;9.006;2022-11-14T02:15:53;6.10;99.90
9466;DHT22;4771;48.726;9.006;2022-11-14T02:18:20;6.10;99.90
9466;DHT22;4771;48.726;9.006;2022-11-14T02:20:49;6.00;99.90
9466;DHT22;4771;48.726;9.006;2022-11-14T02:23:24;6.00;99.90
9466;DHT22;4771;48.726;9.006;2022-11-14T02:25:52;6.00;99.90
9466;DHT22;4771;48.726;9.006;2022-11-14T02:28:19;6.00;99.90
9466;DHT22;4771;48.726;9.006;2022-11-14T02:30:46;6.10;99.90
9466;DHT22;4771;48.726;9.006;2022-11-14T02:33:14;6.00;99.90
9466;DHT22;4771;48.726;9.006;2022-11-14T02:35:41;6.00;99.90
9466;DHT22;4771;48.726;9.006;2022-11-14T02:38:09;5.90;99.90
9466;DHT22;4771;48.726;9.006;2022-11-14T02:40:36;6.20;99.90
9466;DHT22;4771;48.726;9.006;2022-11-14T02:43:03;5.90;99.90
9466;DHT22;4771;48.726;9.006;2022-11-14T02:45:30;5.90;99.90
9466;DHT22;4771;48.726;9.006;2022-11-14T02:47:57;5.80;99.90
9466;DHT22;4771;48.726;9.006;2022-11-14T02:50:24;5.70;99.90
9466;DHT22;4771;48.726;9.006;2022-11-14T02:52:51;5.70;99.90
9466;DHT22;4771;48.726;9.006;2022-11-14T02:55:21;5.60;99.90
9466;DHT22;4771;48.726;9.006;2022-11-14T02:57:48;5.40;99.90
9466;DHT22;4771;48.726;9.006;2022-11-14T03:00:16;5.50;99.90
9466;DHT22;4771;48.726;9.006;2022-11-14T03:02:43;5.50;99.90
9466;DHT22;4771;48.726;9.006;2022-11-14T03:05:10;5.50;99.90
9466;DHT22;4771;48.726;9.006;2022-11-14T03:07:37;5.50;99.90
9466;DHT22;4771;48.726;9.006;2022-11-14T03:10:04;5.50;99.90
9466;DHT22;4771;48.726;9.006;2022-11-14T03:12:33;5.40;99.90
9466;DHT22;4771;48.726;9.006;2022-11-14T03:15:00;5.40;99.90
9466;DHT22;4771;48.726;9.006;2022-11-14T03:17:30;5.40;99.90
9466;DHT22;4771;48.726;9.006;2022-11-14T03:19:57;5.30;99.90
9466;DHT22;4771;48.726;9.006;2022-11-14T03:22:25;5.30;99.90
9466;DHT22;4771;48.726;9.006;2022-11-14T03:24:52;5.00;99.90
9466;DHT22;4771;48.726;9.006;2022-11-14T03:27:19;5.00;99.90
9466;DHT22;4771;48.726;9.006;2022-11-14T03:29:47;5.10;99.90
9466;DHT22;4771;48.726;9.006;2022-11-14T03:32:15;5.20;99.90
9466;DHT22;4771;48.726;9.006;2022-11-14T03:34:42;5.20;99.90
9466;DHT22;4771;48.726;9.006;2022-11-14T03:37:09;5.00;99.90
9466;DHT22;4771;48.726;9.006;2022-11-14T03:39:36;5.10;99.90
9466;DHT22;4771;48.726;9.006;2022-11-14T03:42:03;5.10;99.90
9466;DHT22;4771;48.726;9.006;2022-11-14T03:44:30;4.90;99.90
9466;DHT22;4771;48.726;9.006;2022-11-14T03:46:58;5.00;99.90
9466;DHT22;4771;48.726;9.006;2022-11-14T03:49:25;5.00;99.90
9466;DHT22;4771;48.726;9.006;2022-11-14T03:51:52;5.10;99.90
9466;DHT22;4771;48.726;9.006;2022-11-14T03:54:19;5.10;99.90
9466;DHT22;4771;48.726;9.006;2022-11-14T03:56:46;5.10;99.90
9466;DHT22;4771;48.726;9.006;2022-11-14T03:59:13;5.10;99.90
9466;DHT22;4771;48.726;9.006;2022-11-14T04:01:40;5.10;99.90
9466;DHT22;4771;48.726;9.006;2022-11-14T04:04:10;5.00;99.90
9466;DHT22;4771;48.726;9.006;2022-11-14T04:06:37;5.00;99.90
9466;DHT22;4771;48.726;9.006;2022-11-14T04:09:04;5.00;99.90
9466;DHT22;4771;48.726;9.006;2022-11-14T04:11:32;5.00;99.90
9466;DHT22;4771;48.726;9.006;2022-11-14T04:13:59;4.90;99.90
9466;DHT22;4771;48.726;9.006;2022-11-14T04:16:27;4.90;99.90
9466;DHT22;4771;48.726;9.006;2022-11-14T04:18:54;4.90;99.90
9466;DHT22;4771;48.726;9.006;2022-11-14T04:21:22;4.80;99.90
9466;DHT22;4771;48.726;9.006;2022-11-14T04:23:49;5.00;99.90
9466;DHT22;4771;48.726;9.006;2022-11-14T04:26:16;4.90;99.90
9466;DHT22;4771;48.726;9.006;2022-11-14T04:28:43;4.90;99.90
9466;DHT22;4771;48.726;9.006;2022-11-14T04:31:10;4.90;99.90
9466;DHT22;4771;48.726;9.006;2022-11-14T04:33:37;4.90;99.90
9466;DHT22;4771;48.726;9.006;2022-11-14T04:36:05;5.10;99.90
9466;DHT22;4771;48.726;9.006;2022-11-14T04:38:33;5.00;99.90
9466;DHT22;4771;48.726;9.006;2022-11-14T04:41:00;4.90;99.90
9466;DHT22;4771;48.726;9.006;2022-11-14T04:43:27;5.00;99.90
9466;DHT22;4771;48.726;9.006;2022-11-14T04:45:54;5.10;99.90
9466;DHT22;4771;48.726;9.006;2022-11-14T04:48:21;5.00;99.90
9466;DHT22;4771;48.726;9.006;2022-11-14T04:50:48;4.80;99.90
9466;DHT22;4771;48.726;9.006;2022-11-14T04:53:15;4.80;99.90
9466;DHT22;4771;48.726;9.006;2022-11-14T04:55:44;4.80;99.90
9466;DHT22;4771;48.726;9.006;2022-11-14T04:58:11;4.80;99.90
9466;DHT22;4771;48.726;9.006;2022-11-14T05:00:38;4.80;99.90
9466;DHT22;4771;48.726;9.006;2022-11-14T05:03:07;4.90;99.90
9466;DHT22;4771;48.726;9.006;2022-11-14T05:05:34;4.80;99.90
9466;DHT22;4771;48.726;9.006;2022-11-14T05:08:01;4.60;99.90
9466;DHT22;4771;48.726;9.006;2022-11-14T05:10:28;4.70;99.90
9466;DHT22;4771;48.726;9.006;2022-11-14T05:12:56;4.60;99.90
9466;DHT22;4771;48.726;9.006;2022-11-14T05:15:23;4.60;99.90
9466;DHT22;4771;48.726;9.006;2022-11-14T05:17:50;4.60;99.90
9466;DHT22;4771;48.726;9.006;2022-11-14T05:20:17;4.60;99.90
9466;DHT22;4771;48.726;9.006;2022-11-14T05:22:44;4.70;99.90
9466;DHT22;4771;48.726;9.006;2022-11-14T05:25:11;4.70;99.90
9466;DHT22;4771;48.726;9.006;2022-11-14T05:27:38;4.60;99.90
9466;DHT22;4771;48.726;9.006;2022-11-14T05:30:08;4.60;99.90
9466;DHT22;4771;48.726;9.006;2022-11-14T05:32:35;4.70;99.90
9466;DHT22;4771;48.726;9.006;2022-11-14T05:35:02;4.70;99.90
9466;DHT22;4771;48.726;9.006;2022-11-14T05:37:29;4.60;99.90
9466;DHT22;4771;48.726;9.006;2022-11-14T05:39:56;4.60;99.90
9466;DHT22;4771;48.726;9.006;2022-11-14T05:42:23;4.60;99.90
9466;DHT22;4771;48.726;9.006;2022-11-14T05:44:50;4.60;99.90
9466;DHT22;4771;48.726;9.006;2022-11-14T05:47:19;4.60;99.90
9466;DHT22;4771;48.726;9.006;2022-11-14T05:49:46;4.50;99.90
9466;DHT22;4771;48.726;9.006;2022-11-14T05:52:13;4.60;99.90
9466;DHT22;4771;48.726;9.006;2022-11-14T05:54:40;4.60;99.90
9466;DHT22;4771;48.726;9.006;2022-11-14T05:57:07;4.70;99.90
9466;DHT22;4771;48.726;9.006;2022-11-14T05:59:34;4.70;99.90
9466;DHT22;4771;48.726;9.006;2022-11-14T06:02:01;4.70;99.90
9466;DHT22;4771;48.726;9.006;2022-11-14T06:04:29;4.70;99.90
9466;DHT22;4771;48.726;9.006;2022-11-14T06:06:56;4.70;99.90
9466;DHT22;4771;48.726;9.006;2022-11-14T06:09:23;4.70;99.90
9466;DHT22;4771;48.726;9.006;2022-11-14T06:11:50;4.70;99.90
9466;DHT22;4771;48.726;9.006;2022-11-14T06:14:17;4.70;99.90
9466;DHT22;4771;48.726;9.006;2022-11-14T06:16:44;4.70;99.90
9466;DHT22;4771;48.726;9.006;2022-11-14T06:19:11;4.80;99.90
9466;DHT22;4771;48.726;9.006;2022-11-14T06:21:39;4.80;99.90
9466;DHT22;4771;48.726;9.006;2022-11-14T06:24:07;4.60;99.90
9466;DHT22;4771;48.726;9.006;2022-11-14T06:26:34;4.50;99.90
9466;DHT22;4771;48.726;9.006;2022-11-14T06:29:01;4.60;99.90
9466;DHT22;4771;48.726;9.006;2022-11-14T06:31:28;4.50;99.90
9466;DHT22;4771;48.726;9.006;2022-11-14T06:33:56;4.70;99.90
9466;DHT22;4771;48.726;9.006;2022-11-14T06:36:28;4.80;99.90
9466;DHT22;4771;48.726;9.006;2022-11-14T06:38:57;4.90;99.90
9466;DHT22;4771;48.726;9.006;2022-11-14T06:41:24;4.90;99.90
9466;DHT22;4771;48.726;9.006;2022-11-14T06:43:51;5.00;99.90
9466;DHT22;4771;48.726;9.006;2022-11-14T06:46:20;4.90;99.90
9466;DHT22;4771;48.726;9.006;2022-11-14T06:48:48;5.00;99.90
9466;DHT22;4771;48.726;9.006;2022-11-14T06:51:16;5.10;99.90
9466;DHT22;4771;48.726;9.006;2022-11-14T06:53:43;5.20;99.90
9466;DHT22;4771;48.726;9.006;2022-11-14T06:56:13;5.30;99.90
9466;DHT22;4771;48.726;9.006;2022-11-14T06:58:43;5.30;99.90
9466;DHT22;4771;48.726;9.006;2022-11-14T07:01:11;5.30;99.90
9466;DHT22;4771;48.726;9.006;2022-11-14T07:03:39;5.20;99.90
9466;DHT22;4771;48.726;9.006;2022-11-14T07:06:07;5.40;99.90
9466;DHT22;4771;48.726;9.006;2022-11-14T07:08:34;5.40;99.90
9466;DHT22;4771;48.726;9.006;2022-11-14T07:11:02;5.60;99.90
9466;DHT22;4771;48.726;9.006;2022-11-14T07:13:32;5.50;99.90
9466;DHT22;4771;48.726;9.006;2022-11-14T07:15:59;5.60;99.90
9466;DHT22;4771;48.726;9.006;2022-11-14T07:18:28;5.70;99.90
9466;DHT22;4771;48.726;9.006;2022-11-14T07:20:59;5.70;99.90
9466;DHT22;4771;48.726;9.006;2022-11-14T07:23:27;5.80;99.90
9466;DHT22;4771;48.726;9.006;2022-11-14T07:25:54;5.80;99.90
9466;DHT22;4771;48.726;9.006;2022-11-14T07:28:21;5.80;99.90
9466;DHT22;4771;48.726;9.006;2022-11-14T07:30:50;5.80;99.90
9466;DHT22;4771;48.726;9.006;2022-11-14T07:33:17;5.80;99.90
9466;DHT22;4771;48.726;9.006;2022-11-14T07:35:44;5.90;99.90
9466;DHT22;4771;48.726;9.006;2022-11-14T07:38:11;5.80;99.90
9466;DHT22;4771;48.726;9.006;2022-11-14T07:40:37;5.70;99.90
9466;DHT22;4771;48.726;9.006;2022-11-14T07:43:04;5.80;99.90
9466;DHT22;4771;48.726;9.006;2022-11-14T07:45:31;5.80;99.90
9466;DHT22;4771;48.726;9.006;2022-11-14T07:48:00;5.90;99.90
9466;DHT22;4771;48.726;9.006;2022-11-14T07:50:28;5.90;99.90
9466;DHT22;4771;48.726;9.006;2022-11-14T07:52:56;6.00;99.90
9466;DHT22;4771;48.726;9.006;2022-11-14T07:55:23;6.10;99.90
9466;DHT22;4771;48.726;9.006;2022-11-14T07:57:54;6.00;99.90
9466;DHT22;4771;48.726;9.006;2022-11-14T08:00:21;6.00;99.90
9466;DHT22;4771;48.726;9.006;2022-11-14T08:02:48;6.10;99.90
9466;DHT22;4771;48.726;9.006;2022-11-14T08:05:17;6.10;99.90
9466;DHT22;4771;48.726;9.006;2022-11-14T08:07:44;6.20;99.90
9466;DHT22;4771;48.726;9.006;2022-11-14T08:10:11;6.20;99.90
9466;DHT22;4771;48.726;9.006;2022-11-14T08:12:39;6.30;99.90
9466;DHT22;4771;48.726;9.006;2022-11-14T08:15:08;6.40;99.90
9466;DHT22;4771;48.726;9.006;2022-11-14T08:17:36;6.40;99.90
9466;DHT22;4771;48.726;9.006;2022-11-14T08:20:04;6.30;99.90
9466;DHT22;4771;48.726;9.006;2022-11-14T08:22:33;6.50;99.90
9466;DHT22;4771;48.726;9.006;2022-11-14T08:25:00;6.50;99.90
9466;DHT22;4771;48.726;9.006;2022-11-14T08:27:27;6.50;99.90
9466;DHT22;4771;48.726;9.006;2022-11-14T08:29:54;6.50;99.90
9466;DHT22;4771;48.726;9.006;2022-11-14T08:32:21;6.60;99.90
9466;DHT22;4771;48.726;9.006;2022-11-14T08:34:48;6.50;99.90
9466;DHT22;4771;48.726;9.006;2022-11-14T08:37:14;6.50;99.90
9466;DHT22;4771;48.726;9.006;2022-11-14T08:39:43;6.60;99.90
9466;DHT22;4771;48.726;9.006;2022-11-14T08:42:10;6.70;99.90
9466;DHT22;4771;48.726;9.006;2022-11-14T08:44:37;6.80;99.90
9466;DHT22;4771;48.726;9.006;2022-11-14T08:47:04;6.90;99.90
9466;DHT22;4771;48.726;9.006;2022-11-14T08:49:31;7.00;99.90
9466;DHT22;4771;48.726;9.006;2022-11-14T08:51:58;7.20;99.90
9466;DHT22;4771;48.726;9.006;2022-11-14T08:54:25;7.40;99.90
9466;DHT22;4771;48.726;9.006;2022-11-14T08:56:54;7.50;99.90
9466;DHT22;4771;48.726;9.006;2022-11-14T08:59:21;7.60;99.90
9466;DHT22;4771;48.726;9.006;2022-11-14T09:01:48;7.80;99.90
9466;DHT22;4771;48.726;9.006;2022-11-14T09:04:19;7.90;99.90
9466;DHT22;4771;48.726;9.006;2022-11-14T09:06:45;7.90;99.90
9466;DHT22;4771;48.726;9.006;2022-11-14T09:09:13;8.00;99.90
9466;DHT22;4771;48.726;9.006;2022-11-14T09:11:40;8.10;99.90
9466;DHT22;4771;48.726;9.006;2022-11-14T09:14:08;8.10;99.90
9466;DHT22;4771;48.726;9.006;2022-11-14T09:16:35;8.20;99.90
9466;DHT22;4771;48.726;9.006;2022-11-14T09:19:02;8.20;99.90
9466;DHT22;4771;48.726;9.006;2022-11-14T09:21:31;8.30;99.90
9466;DHT22;4771;48.726;9.006;2022-11-14T09:23:59;8.30;99.90
9466;DHT22;4771;48.726;9.006;2022-11-14T09:26:26;8.30;99.90
9466;DHT22;4771;48.726;9.006;2022-11-14T09:28:53;8.30;99.90
9466;DHT22;4771;48.726;9.006;2022-11-14T09:31:21;8.40;99.90
9466;DHT22;4771;48.726;9.006;2022-11-14T09:33:48;8.40;99.90
9466;DHT22;4771;48.726;9.006;2022-11-14T09:36:15;8.50;99.90
9466;DHT22;4771;48.726;9.006;2022-11-14T09:38:43;8.60;99.90
9466;DHT22;4771;48.726;9.006;2022-11-14T09:41:24;8.60;99.90
9466;DHT22;4771;48.726;9.006;2022-11-14T09:47:06;8.70;99.90
9466;DHT22;4771;48.726;9.006;2022-11-14T09:49:36;8.90;99.90
9466;DHT22;4771;48.726;9.006;2022-11-14T09:52:14;9.00;99.90
9466;DHT22;4771;48.726;9.006;2022-11-14T09:54:47;9.10;99.90
9466;DHT22;4771;48.726;9.006;2022-11-14T09:57:19;9.30;99.90
9466;DHT22;4771;48.726;9.006;2022-11-14T09:59:47;9.40;99.90
9466;DHT22;4771;48.726;9.006;2022-11-14T10:02:30;9.40;99.90
9466;DHT22;4771;48.726;9.006;2022-11-14T10:05:14;9.50;99.90
9466;DHT22;4771;48.726;9.006;2022-11-14T10:07:51;9.80;99.90
9466;DHT22;4771;48.726;9.006;2022-11-14T10:10:29;10.10;99.90
9466;DHT22;4771;48.726;9.006;2022-11-14T10:13:05;10.20;99.90
9466;DHT22;4771;48.726;9.006;2022-11-14T10:15:44;10.40;99.90
9466;DHT22;4771;48.726;9.006;2022-11-14T10:18:22;10.60;99.90
9466;DHT22;4771;48.726;9.006;2022-11-14T10:20:57;10.80;99.90
9466;DHT22;4771;48.726;9.006;2022-11-14T10:23:38;10.90;99.90
9466;DHT22;4771;48.726;9.006;2022-11-14T10:26:22;10.80;99.90
9466;DHT22;4771;48.726;9.006;2022-11-14T10:29:14;10.60;99.90
9466;DHT22;4771;48.726;9.006;2022-11-14T10:31:52;10.50;99.90
9466;DHT22;4771;48.726;9.006;2022-11-14T10:34:30;10.40;99.90
9466;DHT22;4771;48.726;9.006;2022-11-14T10:37:03;10.50;99.90
9466;DHT22;4771;48.726;9.006;2022-11-14T10:39:37;10.60;99.90
9466;DHT22;4771;48.726;9.006;2022-11-14T10:42:11;10.80;99.90
9466;DHT22;4771;48.726;9.006;2022-11-14T10:44:46;11.10;99.90
9466;DHT22;4771;48.726;9.006;2022-11-14T10:47:19;11.30;99.90
9466;DHT22;4771;48.726;9.006;2022-11-14T10:49:52;11.10;99.90
9466;DHT22;4771;48.726;9.006;2022-11-14T10:52:30;11.00;99.90
9466;DHT22;4771;48.726;9.006;2022-11-14T10:54:59;11.00;99.90
9466;DHT22;4771;48.726;9.006;2022-11-14T10:57:29;11.00;99.90
9466;DHT22;4771;48.726;9.006;2022-11-14T10:59:56;11.00;99.90
9466;DHT22;4771;48.726;9.006;2022-11-14T11:02:23;11.10;99.90
9466;DHT22;4771;48.726;9.006;2022-11-14T11:04:51;11.10;99.90
9466;DHT22;4771;48.726;9.006;2022-11-14T11:07:22;11.10;99.90
9466;DHT22;4771;48.726;9.006;2022-11-14T11:10:20;11.30;99.90
9466;DHT22;4771;48.726;9.006;2022-11-14T11:13:05;11.60;99.90
9466;DHT22;4771;48.726;9.006;2022-11-14T11:15:39;11.80;99.90
9466;DHT22;4771;48.726;9.006;2022-11-14T11:18:24;11.60;99.90
9466;DHT22;4771;48.726;9.006;2022-11-14T11:21:07;11.60;99.90
9466;DHT22;4771;48.726;9.006;2022-11-14T11:23:35;11.60;99.90
9466;DHT22;4771;48.726;9.006;2022-11-14T11:26:04;11.50;99.90
9466;DHT22;4771;48.726;9.006;2022-11-14T11:28:34;11.40;99.90
9466;DHT22;4771;48.726;9.006;2022-11-14T11:31:04;11.30;99.90
9466;DHT22;4771;48.726;9.006;2022-11-14T11:33:32;11.20;99.90
9466;DHT22;4771;48.726;9.006;2022-11-14T11:36:01;11.20;99.90
9466;DHT22;4771;48.726;9.006;2022-11-14T11:38:32;11.10;99.90
9466;DHT22;4771;48.726;9.006;2022-11-14T11:41:05;11.10;99.90
9466;DHT22;4771;48.726;9.006;2022-11-14T11:43:39;10.90;99.90
9466;DHT22;4771;48.726;9.006;2022-11-14T11:46:13;10.90;99.90
9466;DHT22;4771;48.726;9.006;2022-11-14T11:48:41;10.80;99.90
9466;DHT22;4771;48.726;9.006;2022-11-14T11:51:14;10.80;99.90
9466;DHT22;4771;48.726;9.006;2022-11-14T11:53:46;10.80;99.90
9466;DHT22;4771;48.726;9.006;2022-11-14T11:56:21;10.60;99.90
9466;DHT22;4771;48.726;9.006;2022-11-14T11:58:52;10.70;99.90
9466;DHT22;4771;48.726;9.006;2022-11-14T12:01:21;10.80;99.90
9466;DHT22;4771;48.726;9.006;2022-11-14T12:03:50;10.80;99.90
9466;DHT22;4771;48.726;9.006;2022-11-14T12:06:19;10.80;99.90
9466;DHT22;4771;48.726;9.006;2022-11-14T12:09:00;10.90;99.90
9466;DHT22;4771;48.726;9.006;2022-11-14T12:11:31;11.00;99.90
9466;DHT22;4771;48.726;9.006;2022-11-14T12:14:37;11.10;99.90
9466;DHT22;4771;48.726;9.006;2022-11-14T12:17:26;11.10;99.90
9466;DHT22;4771;48.726;9.006;2022-11-14T12:20:18;11.30;99.90
9466;DHT22;4771;48.726;9.006;2022-11-14T12:23:01;11.40;99.90
9466;DHT22;4771;48.726;9.006;2022-11-14T12:25:54;11.90;99.90
9466;DHT22;4771;48.726;9.006;2022-11-14T12:28:42;12.40;99.90
9466;DHT22;4771;48.726;9.006;2022-11-14T12:31:15;12.80;99.90
9466;DHT22;4771;48.726;9.006;2022-11-14T12:33:48;12.90;99.90
9466;DHT22;4771;48.726;9.006;2022-11-14T12:36:17;13.20;99.90
9466;DHT22;4771;48.726;9.006;2022-11-14T12:38:46;13.70;99.90
9466;DHT22;4771;48.726;9.006;2022-11-14T12:41:22;13.80;99.90
9466;DHT22;4771;48.726;9.006;2022-11-14T12:43:50;13.80;99.90
9466;DHT22;4771;48.726;9.006;2022-11-14T12:46:17;13.70;99.90
9466;DHT22;4771;48.726;9.006;2022-11-14T12:48:45;13.80;99.90
9466;DHT22;4771;48.726;9.006;2022-11-14T12:51:47;13.90;99.90
9466;DHT22;4771;48.726;9.006;2022-11-14T12:54:42;13.60;99.90
9466;DHT22;4771;48.726;9.006;2022-11-14T12:57:20;13.50;99.90
9466;DHT22;4771;48.726;9.006;2022-11-14T13:00:09;13.40;99.90
9466;DHT22;4771;48.726;9.006;2022-11-14T13:05:43;13.30;99.90
9466;DHT22;4771;48.726;9.006;2022-11-14T13:11:32;13.00;99.90
9466;DHT22;4771;48.726;9.006;2022-11-14T13:14:20;13.00;99.90
9466;DHT22;4771;48.726;9.006;2022-11-14T13:17:09;12.80;99.90
9466;DHT22;4771;48.726;9.006;2022-11-14T13:19:55;12.80;99.90
9466;DHT22;4771;48.726;9.006;2022-11-14T13:22:41;12.90;99.90
9466;DHT22;4771;48.726;9.006;2022-11-14T13:25:17;13.00;99.90
9466;DHT22;4771;48.726;9.006;2022-11-14T13:27:45;13.00;99.90
9466;DHT22;4771;48.726;9.006;2022-11-14T13:30:15;13.00;99.90
9466;DHT22;4771;48.726;9.006;2022-11-14T13:33:00;13.10;99.90
9466;DHT22;4771;48.726;9.006;2022-11-14T13:35:57;13.20;99.90
9466;DHT22;4771;48.726;9.006;2022-11-14T13:41:50;13.20;99.90
9466;DHT22;4771;48.726;9.006;2022-11-14T13:47:34;13.20;99.90
9466;DHT22;4771;48.726;9.006;2022-11-14T13:50:06;13.10;99.90
9466;DHT22;4771;48.726;9.006;2022-11-14T13:52:40;13.10;99.90
9466;DHT22;4771;48.726;9.006;2022-11-14T13:55:19;13.10;99.90
9466;DHT22;4771;48.726;9.006;2022-11-14T13:57:56;13.00;99.90
9466;DHT22;4771;48.726;9.006;2022-11-14T14:00:28;12.90;99.90
9466;DHT22;4771;48.726;9.006;2022-11-14T14:03:06;13.00;99.90
9466;DHT22;4771;48.726;9.006;2022-11-14T14:05:59;13.10;99.90
9466;DHT22;4771;48.726;9.006;2022-11-14T14:11:38;13.10;99.90
9466;DHT22;4771;48.726;9.006;2022-11-14T14:14:19;13.00;99.90
9466;DHT22;4771;48.726;9.006;2022-11-14T14:16:52;13.00;99.90
9466;DHT22;4771;48.726;9.006;2022-11-14T14:19:40;13.00;99.90
9466;DHT22;4771;48.726;9.006;2022-11-14T14:22:16;12.90;99.90
9466;DHT22;4771;48.726;9.006;2022-11-14T14:24:51;12.80;99.90
9466;DHT22;4771;48.726;9.006;2022-11-14T14:27:24;12.70;99.90
9466;DHT22;4771;48.726;9.006;2022-11-14T14:30:00;12.60;99.90
9466;DHT22;4771;48.726;9.006;2022-11-14T14:32:28;12.50;99.90
9466;DHT22;4771;48.726;9.006;2022-11-14T14:34:57;12.50;99.90
9466;DHT22;4771;48.726;9.006;2022-11-14T14:37:26;12.60;99.90
9466;DHT22;4771;48.726;9.006;2022-11-14T14:39:59;12.50;99.90
9466;DHT22;4771;48.726;9.006;2022-11-14T14:42:37;12.50;99.90
9466;DHT22;4771;48.726;9.006;2022-11-14T14:45:14;12.40;99.90
9466;DHT22;4771;48.726;9.006;2022-11-14T14:47:42;12.30;99.90
9466;DHT22;4771;48.726;9.006;2022-11-14T14:50:16;12.30;99.90
9466;DHT22;4771;48.726;9.006;2022-11-14T14:52:43;12.30;99.90
9466;DHT22;4771;48.726;9.006;2022-11-14T14:55:20;12.20;99.90
9466;DHT22;4771;48.726;9.006;2022-11-14T14:57:47;12.20;99.90
9466;DHT22;4771;48.726;9.006;2022-11-14T15:00:20;12.20;99.90
9466;DHT22;4771;48.726;9.006;2022-11-14T15:02:48;12.10;99.90
9466;DHT22;4771;48.726;9.006;2022-11-14T15:05:22;12.00;99.90
9466;DHT22;4771;48.726;9.006;2022-11-14T15:07:51;11.80;99.90
9466;DHT22;4771;48.726;9.006;2022-11-14T15:10:21;11.80;99.90
9466;DHT22;4771;48.726;9.006;2022-11-14T15:12:50;11.80;99.90
9466;DHT22;4771;48.726;9.006;2022-11-14T15:15:20;11.80;99.90
9466;DHT22;4771;48.726;9.006;2022-11-14T15:17:48;11.70;99.90
9466;DHT22;4771;48.726;9.006;2022-11-14T15:20:24;11.70;99.90
9466;DHT22;4771;48.726;9.006;2022-11-14T15:23:02;11.70;99.90
9466;DHT22;4771;48.726;9.006;2022-11-14T15:25:29;11.60;99.90
9466;DHT22;4771;48.726;9.006;2022-11-14T15:27:57;11.60;99.90
9466;DHT22;4771;48.726;9.006;2022-11-14T15:30:26;11.60;99.90
9466;DHT22;4771;48.726;9.006;2022-11-14T15:33:00;11.60;99.90
9466;DHT22;4771;48.726;9.006;2022-11-14T15:35:30;11.50;99.90
9466;DHT22;4771;48.726;9.006;2022-11-14T15:38:03;11.50;99.90
9466;DHT22;4771;48.726;9.006;2022-11-14T15:40:31;11.40;99.90
9466;DHT22;4771;48.726;9.006;2022-11-14T15:42:58;11.30;99.90
9466;DHT22;4771;48.726;9.006;2022-11-14T15:45:27;11.30;99.90
9466;DHT22;4771;48.726;9.006;2022-11-14T15:47:58;11.30;99.90
9466;DHT22;4771;48.726;9.006;2022-11-14T15:50:30;11.20;99.90
9466;DHT22;4771;48.726;9.006;2022-11-14T15:52:59;11.20;99.90
9466;DHT22;4771;48.726;9.006;2022-11-14T15:55:27;11.20;99.90
9466;DHT22;4771;48.726;9.006;2022-11-14T15:57:55;11.20;99.90
9466;DHT22;4771;48.726;9.006;2022-11-14T16:00:23;11.00;99.90
9466;DHT22;4771;48.726;9.006;2022-11-14T16:02:51;11.00;99.90
9466;DHT22;4771;48.726;9.006;2022-11-14T16:05:23;11.00;99.90
9466;DHT22;4771;48.726;9.006;2022-11-14T16:07:52;11.10;99.90
9466;DHT22;4771;48.726;9.006;2022-11-14T16:10:20;11.00;99.90
9466;DHT22;4771;48.726;9.006;2022-11-14T16:12:48;11.00;99.90
9466;DHT22;4771;48.726;9.006;2022-11-14T16:15:15;11.00;99.90
9466;DHT22;4771;48.726;9.006;2022-11-14T16:17:44;11.00;99.90
9466;DHT22;4771;48.726;9.006;2022-11-14T16:20:14;11.00;99.90
9466;DHT22;4771;48.726;9.006;2022-11-14T16:22:42;11.00;99.90
9466;DHT22;4771;48.726;9.006;2022-11-14T16:25:15;10.90;99.90
9466;DHT22;4771;48.726;9.006;2022-11-14T16:27:42;10.90;99.90
9466;DHT22;4771;48.726;9.006;2022-11-14T16:30:11;10.90;99.90
9466;DHT22;4771;48.726;9.006;2022-11-14T16:32:38;10.90;99.90
9466;DHT22;4771;48.726;9.006;2022-11-14T16:35:08;10.90;99.90
9466;DHT22;4771;48.726;9.006;2022-11-14T16:37:38;10.90;99.90
9466;DHT22;4771;48.726;9.006;2022-11-14T16:40:06;10.80;99.90
9466;DHT22;4771;48.726;9.006;2022-11-14T16:42:39;10.90;99.90
9466;DHT22;4771;48.726;9.006;2022-11-14T16:45:07;10.80;99.90
9466;DHT22;4771;48.726;9.006;2022-11-14T16:47:34;10.80;99.90
9466;DHT22;4771;48.726;9.006;2022-11-14T16:50:01;10.70;99.90